sensor_id;sensor_type;location;lat;lon;timestamp;P1;durP1;ratioP1;P2;durP2;ratioP2
68050;SDS011;54839;51.364;7.246;2023-06-24T00:01:52;10.83;;;7.00;;
68050;SDS011;54839;51.364;7.246;2023-06-24T00:04:18;6.77;;;6.17;;
68050;SDS011;54839;51.364;7.246;2023-06-24T00:06:44;6.87;;;6.23;;
68050;SDS011;54839;51.364;7.246;2023-06-24T00:09:09;5.83;;;5.33;;
68050;SDS011;54839;51.364;7.246;2023-06-24T00:11:35;7.40;;;6.53;;
68050;SDS011;54839;51.364;7.246;2023-06-24T00:14:01;6.50;;;5.90;;
68050;SDS011;54839;51.364;7.246;2023-06-24T00:16:26;6.83;;;6.23;;
68050;SDS011;54839;51.364;7.246;2023-06-24T00:18:53;6.47;;;5.97;;
68050;SDS011;54839;51.364;7.246;2023-06-24T00:21:20;6.20;;;5.60;;
68050;SDS011;54839;51.364;7.246;2023-06-24T00:23:45;6.57;;;5.80;;
68050;SDS011;54839;51.364;7.246;2023-06-24T00:26:14;9.93;;;7.50;;
68050;SDS011;54839;51.364;7.246;2023-06-24T00:28:41;7.03;;;6.43;;
68050;SDS011;54839;51.364;7.246;2023-06-24T00:31:07;6.90;;;6.20;;
68050;SDS011;54839;51.364;7.246;2023-06-24T00:33:32;8.60;;;6.23;;
68050;SDS011;54839;51.364;7.246;2023-06-24T00:36:01;7.37;;;6.47;;
68050;SDS011;54839;51.364;7.246;2023-06-24T00:38:27;7.10;;;6.60;;
68050;SDS011;54839;51.364;7.246;2023-06-24T00:40:57;7.10;;;6.40;;
68050;SDS011;54839;51.364;7.246;2023-06-24T00:43:23;7.33;;;6.50;;
68050;SDS011;54839;51.364;7.246;2023-06-24T00:45:49;7.40;;;6.10;;
68050;SDS011;54839;51.364;7.246;2023-06-24T00:48:15;7.33;;;6.20;;
68050;SDS011;54839;51.364;7.246;2023-06-24T00:50:41;8.20;;;6.60;;
68050;SDS011;54839;51.364;7.246;2023-06-24T00:53:10;7.00;;;6.30;;
68050;SDS011;54839;51.364;7.246;2023-06-24T00:55:37;6.67;;;5.80;;
68050;SDS011;54839;51.364;7.246;2023-06-24T00:58:03;9.03;;;6.60;;
68050;SDS011;54839;51.364;7.246;2023-06-24T01:00:29;7.80;;;7.00;;
68050;SDS011;54839;51.364;7.246;2023-06-24T01:02:57;7.80;;;7.10;;
68050;SDS011;54839;51.364;7.246;2023-06-24T01:05:24;7.83;;;6.20;;
68050;SDS011;54839;51.364;7.246;2023-06-24T01:07:51;9.57;;;6.10;;
68050;SDS011;54839;51.364;7.246;2023-06-24T01:10:21;7.17;;;6.57;;
68050;SDS011;54839;51.364;7.246;2023-06-24T01:12:48;7.47;;;6.57;;
68050;SDS011;54839;51.364;7.246;2023-06-24T01:15:14;6.63;;;5.90;;
68050;SDS011;54839;51.364;7.246;2023-06-24T01:29:22;6.50;;;5.90;;
68050;SDS011;54839;51.364;7.246;2023-06-24T01:34:46;8.40;;;7.47;;
68050;SDS011;54839;51.364;7.246;2023-06-24T01:37:28;6.70;;;6.10;;
68050;SDS011;54839;51.364;7.246;2023-06-24T01:42:50;12.20;;;7.10;;
68050;SDS011;54839;51.364;7.246;2023-06-24T01:45:19;8.73;;;6.60;;
68050;SDS011;54839;51.364;7.246;2023-06-24T01:48:00;7.97;;;6.83;;
68050;SDS011;54839;51.364;7.246;2023-06-24T01:50:31;7.67;;;6.30;;
68050;SDS011;54839;51.364;7.246;2023-06-24T01:52:58;10.90;;;7.33;;
68050;SDS011;54839;51.364;7.246;2023-06-24T01:55:29;7.00;;;6.30;;
68050;SDS011;54839;51.364;7.246;2023-06-24T01:57:57;9.43;;;6.77;;
68050;SDS011;54839;51.364;7.246;2023-06-24T02:00:26;10.00;;;5.97;;
68050;SDS011;54839;51.364;7.246;2023-06-24T02:02:51;8.30;;;7.30;;
68050;SDS011;54839;51.364;7.246;2023-06-24T02:05:19;11.30;;;8.03;;
68050;SDS011;54839;51.364;7.246;2023-06-24T02:07:47;8.00;;;7.13;;
68050;SDS011;54839;51.364;7.246;2023-06-24T02:10:14;9.70;;;7.57;;
68050;SDS011;54839;51.364;7.246;2023-06-24T02:12:41;9.10;;;7.13;;
68050;SDS011;54839;51.364;7.246;2023-06-24T02:15:08;8.13;;;7.43;;
68050;SDS011;54839;51.364;7.246;2023-06-24T02:17:35;9.37;;;7.57;;
68050;SDS011;54839;51.364;7.246;2023-06-24T02:20:03;7.20;;;6.60;;
68050;SDS011;54839;51.364;7.246;2023-06-24T02:22:32;5.83;;;5.43;;
68050;SDS011;54839;51.364;7.246;2023-06-24T02:24:58;6.90;;;6.20;;
68050;SDS011;54839;51.364;7.246;2023-06-24T02:27:24;13.43;;;7.67;;
68050;SDS011;54839;51.364;7.246;2023-06-24T02:29:50;15.93;;;8.10;;
68050;SDS011;54839;51.364;7.246;2023-06-24T02:32:17;8.90;;;7.03;;
68050;SDS011;54839;51.364;7.246;2023-06-24T02:34:43;7.67;;;6.40;;
68050;SDS011;54839;51.364;7.246;2023-06-24T02:37:09;12.53;;;7.13;;
68050;SDS011;54839;51.364;7.246;2023-06-24T02:39:34;9.23;;;7.53;;
68050;SDS011;54839;51.364;7.246;2023-06-24T02:42:04;7.93;;;7.23;;
68050;SDS011;54839;51.364;7.246;2023-06-24T02:44:30;8.93;;;7.93;;
68050;SDS011;54839;51.364;7.246;2023-06-24T02:46:55;12.13;;;7.67;;
68050;SDS011;54839;51.364;7.246;2023-06-24T02:49:22;8.80;;;7.90;;
68050;SDS011;54839;51.364;7.246;2023-06-24T02:51:48;7.80;;;6.87;;
68050;SDS011;54839;51.364;7.246;2023-06-24T02:54:14;7.60;;;6.60;;
68050;SDS011;54839;51.364;7.246;2023-06-24T02:56:40;9.47;;;7.27;;
68050;SDS011;54839;51.364;7.246;2023-06-24T02:59:09;9.03;;;7.40;;
68050;SDS011;54839;51.364;7.246;2023-06-24T03:01:35;8.40;;;7.30;;
68050;SDS011;54839;51.364;7.246;2023-06-24T03:04:04;8.07;;;7.37;;
68050;SDS011;54839;51.364;7.246;2023-06-24T03:06:31;9.23;;;8.10;;
68050;SDS011;54839;51.364;7.246;2023-06-24T03:08:57;9.30;;;8.07;;
68050;SDS011;54839;51.364;7.246;2023-06-24T03:11:24;9.00;;;7.57;;
68050;SDS011;54839;51.364;7.246;2023-06-24T03:13:51;10.27;;;7.37;;
68050;SDS011;54839;51.364;7.246;2023-06-24T03:16:16;11.20;;;7.50;;
68050;SDS011;54839;51.364;7.246;2023-06-24T03:18:42;8.77;;;7.30;;
68050;SDS011;54839;51.364;7.246;2023-06-24T03:21:08;8.50;;;7.67;;
68050;SDS011;54839;51.364;7.246;2023-06-24T03:23:34;8.67;;;7.87;;
68050;SDS011;54839;51.364;7.246;2023-06-24T03:26:00;8.13;;;7.33;;
68050;SDS011;54839;51.364;7.246;2023-06-24T03:28:27;7.50;;;6.87;;
68050;SDS011;54839;51.364;7.246;2023-06-24T03:30:55;8.60;;;6.43;;
68050;SDS011;54839;51.364;7.246;2023-06-24T03:33:21;11.13;;;7.30;;
68050;SDS011;54839;51.364;7.246;2023-06-24T03:35:46;8.47;;;7.63;;
68050;SDS011;54839;51.364;7.246;2023-06-24T03:38:12;7.50;;;6.23;;
68050;SDS011;54839;51.364;7.246;2023-06-24T03:40:37;8.93;;;7.23;;
68050;SDS011;54839;51.364;7.246;2023-06-24T03:43:03;10.27;;;7.37;;
68050;SDS011;54839;51.364;7.246;2023-06-24T03:45:29;8.87;;;6.93;;
68050;SDS011;54839;51.364;7.246;2023-06-24T03:47:54;8.57;;;7.83;;
68050;SDS011;54839;51.364;7.246;2023-06-24T03:50:20;8.13;;;7.33;;
68050;SDS011;54839;51.364;7.246;2023-06-24T03:52:46;8.87;;;8.07;;
68050;SDS011;54839;51.364;7.246;2023-06-24T03:55:12;8.00;;;7.20;;
68050;SDS011;54839;51.364;7.246;2023-06-24T03:57:37;9.00;;;7.23;;
68050;SDS011;54839;51.364;7.246;2023-06-24T04:00:03;8.77;;;7.57;;
68050;SDS011;54839;51.364;7.246;2023-06-24T04:02:42;7.77;;;6.93;;
68050;SDS011;54839;51.364;7.246;2023-06-24T04:05:09;8.90;;;7.50;;
68050;SDS011;54839;51.364;7.246;2023-06-24T04:07:34;10.03;;;6.50;;
68050;SDS011;54839;51.364;7.246;2023-06-24T04:10:00;8.40;;;6.63;;
68050;SDS011;54839;51.364;7.246;2023-06-24T04:12:27;9.57;;;7.60;;
68050;SDS011;54839;51.364;7.246;2023-06-24T04:14:53;9.97;;;8.97;;
68050;SDS011;54839;51.364;7.246;2023-06-24T04:17:18;8.67;;;7.70;;
68050;SDS011;54839;51.364;7.246;2023-06-24T04:19:44;6.97;;;5.97;;
68050;SDS011;54839;51.364;7.246;2023-06-24T04:22:10;10.33;;;7.70;;
68050;SDS011;54839;51.364;7.246;2023-06-24T04:24:35;8.07;;;7.37;;
68050;SDS011;54839;51.364;7.246;2023-06-24T04:27:01;8.57;;;7.07;;
68050;SDS011;54839;51.364;7.246;2023-06-24T04:29:27;8.03;;;6.00;;
68050;SDS011;54839;51.364;7.246;2023-06-24T04:31:53;11.97;;;7.40;;
68050;SDS011;54839;51.364;7.246;2023-06-24T04:34:18;12.13;;;6.73;;
68050;SDS011;54839;51.364;7.246;2023-06-24T04:36:44;7.83;;;7.00;;
68050;SDS011;54839;51.364;7.246;2023-06-24T04:39:09;10.30;;;7.40;;
68050;SDS011;54839;51.364;7.246;2023-06-24T04:41:35;7.17;;;6.57;;
68050;SDS011;54839;51.364;7.246;2023-06-24T04:44:01;8.17;;;7.30;;
68050;SDS011;54839;51.364;7.246;2023-06-24T04:46:26;7.70;;;7.00;;
68050;SDS011;54839;51.364;7.246;2023-06-24T04:48:52;9.63;;;7.60;;
68050;SDS011;54839;51.364;7.246;2023-06-24T04:51:17;12.17;;;7.60;;
68050;SDS011;54839;51.364;7.246;2023-06-24T04:53:43;7.67;;;6.47;;
68050;SDS011;54839;51.364;7.246;2023-06-24T04:56:09;5.90;;;5.30;;
68050;SDS011;54839;51.364;7.246;2023-06-24T04:58:34;6.17;;;5.67;;
68050;SDS011;54839;51.364;7.246;2023-06-24T05:01:00;6.50;;;5.90;;
68050;SDS011;54839;51.364;7.246;2023-06-24T05:03:25;16.80;;;7.40;;
68050;SDS011;54839;51.364;7.246;2023-06-24T05:05:51;7.63;;;6.67;;
68050;SDS011;54839;51.364;7.246;2023-06-24T05:08:16;6.93;;;6.33;;
68050;SDS011;54839;51.364;7.246;2023-06-24T05:10:42;6.00;;;5.50;;
68050;SDS011;54839;51.364;7.246;2023-06-24T05:13:08;9.07;;;6.43;;
68050;SDS011;54839;51.364;7.246;2023-06-24T05:15:33;7.17;;;6.53;;
68050;SDS011;54839;51.364;7.246;2023-06-24T05:17:59;6.43;;;5.83;;
68050;SDS011;54839;51.364;7.246;2023-06-24T05:20:24;7.13;;;6.40;;
68050;SDS011;54839;51.364;7.246;2023-06-24T05:22:50;6.33;;;5.77;;
68050;SDS011;54839;51.364;7.246;2023-06-24T05:25:16;7.73;;;5.93;;
68050;SDS011;54839;51.364;7.246;2023-06-24T05:27:41;6.50;;;5.90;;
68050;SDS011;54839;51.364;7.246;2023-06-24T05:30:09;7.17;;;6.13;;
68050;SDS011;54839;51.364;7.246;2023-06-24T05:32:35;8.60;;;6.13;;
68050;SDS011;54839;51.364;7.246;2023-06-24T05:35:01;6.40;;;5.90;;
68050;SDS011;54839;51.364;7.246;2023-06-24T05:37:27;6.33;;;5.73;;
68050;SDS011;54839;51.364;7.246;2023-06-24T05:39:52;6.07;;;5.50;;
68050;SDS011;54839;51.364;7.246;2023-06-24T05:42:18;6.53;;;5.77;;
68050;SDS011;54839;51.364;7.246;2023-06-24T05:44:43;7.07;;;6.17;;
68050;SDS011;54839;51.364;7.246;2023-06-24T05:47:09;6.43;;;5.80;;
68050;SDS011;54839;51.364;7.246;2023-06-24T05:49:35;7.13;;;6.33;;
68050;SDS011;54839;51.364;7.246;2023-06-24T05:52:00;6.80;;;6.10;;
68050;SDS011;54839;51.364;7.246;2023-06-24T05:54:26;6.33;;;5.60;;
68050;SDS011;54839;51.364;7.246;2023-06-24T05:56:52;8.03;;;7.27;;
68050;SDS011;54839;51.364;7.246;2023-06-24T05:59:17;7.97;;;7.10;;
68050;SDS011;54839;51.364;7.246;2023-06-24T06:01:43;7.57;;;6.70;;
68050;SDS011;54839;51.364;7.246;2023-06-24T06:04:08;8.23;;;7.43;;
68050;SDS011;54839;51.364;7.246;2023-06-24T06:06:34;7.37;;;6.57;;
68050;SDS011;54839;51.364;7.246;2023-06-24T06:09:00;6.70;;;6.10;;
68050;SDS011;54839;51.364;7.246;2023-06-24T06:11:25;6.23;;;5.67;;
68050;SDS011;54839;51.364;7.246;2023-06-24T06:13:51;7.03;;;6.33;;
68050;SDS011;54839;51.364;7.246;2023-06-24T06:16:17;8.30;;;6.90;;
68050;SDS011;54839;51.364;7.246;2023-06-24T06:18:43;7.00;;;6.40;;
68050;SDS011;54839;51.364;7.246;2023-06-24T06:21:09;7.77;;;7.10;;
68050;SDS011;54839;51.364;7.246;2023-06-24T06:23:34;7.20;;;6.50;;
68050;SDS011;54839;51.364;7.246;2023-06-24T06:26:00;7.67;;;6.97;;
68050;SDS011;54839;51.364;7.246;2023-06-24T06:28:25;8.77;;;7.63;;
68050;SDS011;54839;51.364;7.246;2023-06-24T06:30:51;7.10;;;6.50;;
68050;SDS011;54839;51.364;7.246;2023-06-24T06:33:17;10.33;;;7.40;;
68050;SDS011;54839;51.364;7.246;2023-06-24T06:35:42;8.90;;;6.93;;
68050;SDS011;54839;51.364;7.246;2023-06-24T06:38:08;10.80;;;7.80;;
68050;SDS011;54839;51.364;7.246;2023-06-24T06:40:33;9.73;;;8.30;;
68050;SDS011;54839;51.364;7.246;2023-06-24T06:43:00;12.73;;;9.20;;
68050;SDS011;54839;51.364;7.246;2023-06-24T06:45:25;10.47;;;8.63;;
68050;SDS011;54839;51.364;7.246;2023-06-24T06:47:51;8.67;;;7.87;;
68050;SDS011;54839;51.364;7.246;2023-06-24T06:50:17;9.23;;;8.43;;
68050;SDS011;54839;51.364;7.246;2023-06-24T06:52:42;10.43;;;9.37;;
68050;SDS011;54839;51.364;7.246;2023-06-24T06:55:08;9.67;;;8.77;;
68050;SDS011;54839;51.364;7.246;2023-06-24T06:57:34;11.33;;;10.13;;
68050;SDS011;54839;51.364;7.246;2023-06-24T07:00:00;11.20;;;10.10;;
68050;SDS011;54839;51.364;7.246;2023-06-24T07:02:26;10.97;;;10.03;;
68050;SDS011;54839;51.364;7.246;2023-06-24T07:04:52;11.43;;;10.43;;
68050;SDS011;54839;51.364;7.246;2023-06-24T07:07:17;10.23;;;9.33;;
68050;SDS011;54839;51.364;7.246;2023-06-24T07:09:43;10.77;;;9.67;;
68050;SDS011;54839;51.364;7.246;2023-06-24T07:12:09;11.87;;;9.50;;
68050;SDS011;54839;51.364;7.246;2023-06-24T07:14:34;11.00;;;9.90;;
68050;SDS011;54839;51.364;7.246;2023-06-24T07:17:00;13.20;;;10.13;;
68050;SDS011;54839;51.364;7.246;2023-06-24T07:19:26;10.37;;;9.30;;
68050;SDS011;54839;51.364;7.246;2023-06-24T07:21:51;14.13;;;10.43;;
68050;SDS011;54839;51.364;7.246;2023-06-24T07:24:17;13.00;;;10.53;;
68050;SDS011;54839;51.364;7.246;2023-06-24T07:26:43;11.97;;;10.20;;
68050;SDS011;54839;51.364;7.246;2023-06-24T07:29:08;10.37;;;9.37;;
68050;SDS011;54839;51.364;7.246;2023-06-24T07:31:34;13.40;;;9.10;;
68050;SDS011;54839;51.364;7.246;2023-06-24T07:34:00;12.53;;;11.33;;
68050;SDS011;54839;51.364;7.246;2023-06-24T07:36:26;10.33;;;8.33;;
68050;SDS011;54839;51.364;7.246;2023-06-24T07:38:51;10.60;;;9.00;;
68050;SDS011;54839;51.364;7.246;2023-06-24T07:41:17;9.87;;;8.60;;
68050;SDS011;54839;51.364;7.246;2023-06-24T07:43:43;12.20;;;8.63;;
68050;SDS011;54839;51.364;7.246;2023-06-24T07:46:08;10.20;;;8.93;;
68050;SDS011;54839;51.364;7.246;2023-06-24T07:48:34;10.90;;;10.00;;
68050;SDS011;54839;51.364;7.246;2023-06-24T07:51:00;13.13;;;9.17;;
68050;SDS011;54839;51.364;7.246;2023-06-24T07:53:25;10.87;;;9.80;;
68050;SDS011;54839;51.364;7.246;2023-06-24T07:55:51;12.93;;;10.63;;
68050;SDS011;54839;51.364;7.246;2023-06-24T07:58:16;11.23;;;9.90;;
68050;SDS011;54839;51.364;7.246;2023-06-24T08:00:44;14.57;;;10.30;;
68050;SDS011;54839;51.364;7.246;2023-06-24T08:03:10;13.37;;;10.97;;
68050;SDS011;54839;51.364;7.246;2023-06-24T08:05:35;14.30;;;12.80;;
68050;SDS011;54839;51.364;7.246;2023-06-24T08:08:02;18.00;;;13.40;;
68050;SDS011;54839;51.364;7.246;2023-06-24T08:10:27;15.37;;;13.77;;
68050;SDS011;54839;51.364;7.246;2023-06-24T08:12:53;12.77;;;11.53;;
68050;SDS011;54839;51.364;7.246;2023-06-24T08:15:18;15.17;;;13.57;;
68050;SDS011;54839;51.364;7.246;2023-06-24T08:17:44;15.87;;;14.27;;
68050;SDS011;54839;51.364;7.246;2023-06-24T08:20:21;15.30;;;13.73;;
68050;SDS011;54839;51.364;7.246;2023-06-24T08:22:48;15.63;;;14.13;;
68050;SDS011;54839;51.364;7.246;2023-06-24T08:25:13;18.57;;;15.10;;
68050;SDS011;54839;51.364;7.246;2023-06-24T08:27:39;17.47;;;15.77;;
68050;SDS011;54839;51.364;7.246;2023-06-24T08:30:05;16.50;;;14.83;;
68050;SDS011;54839;51.364;7.246;2023-06-24T08:32:31;21.57;;;14.83;;
68050;SDS011;54839;51.364;7.246;2023-06-24T08:34:57;20.20;;;16.77;;
68050;SDS011;54839;51.364;7.246;2023-06-24T08:37:23;20.93;;;17.93;;
68050;SDS011;54839;51.364;7.246;2023-06-24T08:39:48;19.10;;;17.00;;
68050;SDS011;54839;51.364;7.246;2023-06-24T08:42:14;20.87;;;17.83;;
68050;SDS011;54839;51.364;7.246;2023-06-24T08:44:39;20.57;;;18.47;;
68050;SDS011;54839;51.364;7.246;2023-06-24T08:47:05;19.13;;;17.13;;
68050;SDS011;54839;51.364;7.246;2023-06-24T08:49:31;18.63;;;16.63;;
68050;SDS011;54839;51.364;7.246;2023-06-24T08:52:09;19.30;;;15.80;;
68050;SDS011;54839;51.364;7.246;2023-06-24T08:54:38;17.07;;;15.33;;
68050;SDS011;54839;51.364;7.246;2023-06-24T08:57:06;19.93;;;15.23;;
68050;SDS011;54839;51.364;7.246;2023-06-24T08:59:33;17.93;;;13.83;;
68050;SDS011;54839;51.364;7.246;2023-06-24T09:01:59;16.63;;;12.53;;
68050;SDS011;54839;51.364;7.246;2023-06-24T09:04:25;14.50;;;11.70;;
68050;SDS011;54839;51.364;7.246;2023-06-24T09:06:51;12.30;;;8.77;;
68050;SDS011;54839;51.364;7.246;2023-06-24T09:09:17;12.40;;;9.80;;
68050;SDS011;54839;51.364;7.246;2023-06-24T09:11:54;11.27;;;10.27;;
68050;SDS011;54839;51.364;7.246;2023-06-24T09:14:21;13.73;;;12.33;;
68050;SDS011;54839;51.364;7.246;2023-06-24T09:16:53;10.20;;;9.20;;
68050;SDS011;54839;51.364;7.246;2023-06-24T09:19:23;11.10;;;8.53;;
68050;SDS011;54839;51.364;7.246;2023-06-24T09:21:53;11.23;;;10.07;;
68050;SDS011;54839;51.364;7.246;2023-06-24T09:24:18;13.87;;;11.60;;
68050;SDS011;54839;51.364;7.246;2023-06-24T09:26:44;9.70;;;8.80;;
68050;SDS011;54839;51.364;7.246;2023-06-24T09:29:10;10.53;;;9.37;;
68050;SDS011;54839;51.364;7.246;2023-06-24T09:31:45;8.00;;;6.70;;
68050;SDS011;54839;51.364;7.246;2023-06-24T09:34:13;10.63;;;7.90;;
68050;SDS011;54839;51.364;7.246;2023-06-24T09:36:43;8.33;;;7.50;;
68050;SDS011;54839;51.364;7.246;2023-06-24T09:39:12;8.77;;;7.90;;
68050;SDS011;54839;51.364;7.246;2023-06-24T09:41:41;9.33;;;8.47;;
68050;SDS011;54839;51.364;7.246;2023-06-24T09:44:10;9.70;;;8.77;;
68050;SDS011;54839;51.364;7.246;2023-06-24T09:46:36;11.43;;;8.83;;
68050;SDS011;54839;51.364;7.246;2023-06-24T09:49:05;10.87;;;9.80;;
68050;SDS011;54839;51.364;7.246;2023-06-24T09:51:37;12.63;;;9.30;;
68050;SDS011;54839;51.364;7.246;2023-06-24T09:54:06;11.57;;;9.00;;
68050;SDS011;54839;51.364;7.246;2023-06-24T09:56:37;10.10;;;9.00;;
68050;SDS011;54839;51.364;7.246;2023-06-24T09:59:06;13.57;;;9.33;;
68050;SDS011;54839;51.364;7.246;2023-06-24T10:01:32;9.63;;;8.10;;
68050;SDS011;54839;51.364;7.246;2023-06-24T10:04:00;10.73;;;9.57;;
68050;SDS011;54839;51.364;7.246;2023-06-24T10:06:27;11.17;;;9.83;;
68050;SDS011;54839;51.364;7.246;2023-06-24T10:08:53;10.57;;;9.47;;
68050;SDS011;54839;51.364;7.246;2023-06-24T10:11:19;11.50;;;10.37;;
68050;SDS011;54839;51.364;7.246;2023-06-24T10:13:45;11.27;;;9.60;;
68050;SDS011;54839;51.364;7.246;2023-06-24T10:16:11;9.77;;;8.47;;
68050;SDS011;54839;51.364;7.246;2023-06-24T10:18:38;9.80;;;8.80;;
68050;SDS011;54839;51.364;7.246;2023-06-24T10:21:05;13.80;;;9.03;;
68050;SDS011;54839;51.364;7.246;2023-06-24T10:26:22;13.67;;;12.40;;
68050;SDS011;54839;51.364;7.246;2023-06-24T10:29:14;9.70;;;8.70;;
68050;SDS011;54839;51.364;7.246;2023-06-24T10:42:40;7.50;;;6.70;;
68050;SDS011;54839;51.364;7.246;2023-06-24T10:50:05;7.67;;;6.43;;
68050;SDS011;54839;51.364;7.246;2023-06-24T10:52:32;9.50;;;7.33;;
68050;SDS011;54839;51.364;7.246;2023-06-24T10:55:02;8.47;;;6.53;;
68050;SDS011;54839;51.364;7.246;2023-06-24T10:57:28;7.77;;;5.63;;
68050;SDS011;54839;51.364;7.246;2023-06-24T10:59:54;7.30;;;5.80;;
68050;SDS011;54839;51.364;7.246;2023-06-24T11:02:23;9.30;;;5.57;;
68050;SDS011;54839;51.364;7.246;2023-06-24T11:07:22;6.20;;;5.70;;
68050;SDS011;54839;51.364;7.246;2023-06-24T11:09:53;6.47;;;5.83;;
68050;SDS011;54839;51.364;7.246;2023-06-24T11:12:30;8.40;;;6.13;;
68050;SDS011;54839;51.364;7.246;2023-06-24T11:14:58;6.83;;;6.23;;
68050;SDS011;54839;51.364;7.246;2023-06-24T11:17:26;11.63;;;7.70;;
68050;SDS011;54839;51.364;7.246;2023-06-24T11:19:53;6.03;;;5.50;;
68050;SDS011;54839;51.364;7.246;2023-06-24T11:22:19;8.23;;;5.90;;
68050;SDS011;54839;51.364;7.246;2023-06-24T11:24:45;7.33;;;6.63;;
68050;SDS011;54839;51.364;7.246;2023-06-24T11:27:11;7.80;;;7.07;;
68050;SDS011;54839;51.364;7.246;2023-06-24T11:29:37;11.23;;;7.40;;
68050;SDS011;54839;51.364;7.246;2023-06-24T11:32:06;6.60;;;5.87;;
68050;SDS011;54839;51.364;7.246;2023-06-24T11:34:33;5.20;;;4.70;;
68050;SDS011;54839;51.364;7.246;2023-06-24T11:37:08;6.17;;;5.37;;
68050;SDS011;54839;51.364;7.246;2023-06-24T11:39:37;5.83;;;4.97;;
68050;SDS011;54839;51.364;7.246;2023-06-24T11:42:05;7.03;;;5.07;;
68050;SDS011;54839;51.364;7.246;2023-06-24T11:44:31;4.37;;;4.00;;
68050;SDS011;54839;51.364;7.246;2023-06-24T11:47:07;5.47;;;4.97;;
68050;SDS011;54839;51.364;7.246;2023-06-24T11:49:52;5.97;;;5.43;;
68050;SDS011;54839;51.364;7.246;2023-06-24T11:54:59;5.80;;;4.53;;
68050;SDS011;54839;51.364;7.246;2023-06-24T11:57:46;8.63;;;4.70;;
68050;SDS011;54839;51.364;7.246;2023-06-24T12:00:19;6.53;;;4.30;;
68050;SDS011;54839;51.364;7.246;2023-06-24T12:02:56;5.73;;;4.73;;
68050;SDS011;54839;51.364;7.246;2023-06-24T12:05:25;5.93;;;5.40;;
68050;SDS011;54839;51.364;7.246;2023-06-24T12:07:55;5.47;;;4.97;;
68050;SDS011;54839;51.364;7.246;2023-06-24T12:10:22;5.40;;;4.83;;
68050;SDS011;54839;51.364;7.246;2023-06-24T12:12:48;7.63;;;5.33;;
68050;SDS011;54839;51.364;7.246;2023-06-24T12:15:14;4.83;;;4.43;;
68050;SDS011;54839;51.364;7.246;2023-06-24T12:17:39;5.83;;;5.20;;
68050;SDS011;54839;51.364;7.246;2023-06-24T12:20:05;5.30;;;3.93;;
68050;SDS011;54839;51.364;7.246;2023-06-24T12:22:32;4.33;;;3.93;;
68050;SDS011;54839;51.364;7.246;2023-06-24T12:24:58;6.00;;;4.27;;
68050;SDS011;54839;51.364;7.246;2023-06-24T12:27:23;5.03;;;3.80;;
68050;SDS011;54839;51.364;7.246;2023-06-24T12:29:49;5.00;;;3.70;;
68050;SDS011;54839;51.364;7.246;2023-06-24T12:32:14;5.10;;;4.60;;
68050;SDS011;54839;51.364;7.246;2023-06-24T12:34:40;4.30;;;3.90;;
68050;SDS011;54839;51.364;7.246;2023-06-24T12:37:06;4.53;;;4.10;;
68050;SDS011;54839;51.364;7.246;2023-06-24T12:39:31;5.40;;;4.63;;
68050;SDS011;54839;51.364;7.246;2023-06-24T12:41:57;6.67;;;3.63;;
68050;SDS011;54839;51.364;7.246;2023-06-24T12:44:23;4.20;;;3.80;;
68050;SDS011;54839;51.364;7.246;2023-06-24T12:46:48;6.03;;;3.83;;
68050;SDS011;54839;51.364;7.246;2023-06-24T12:49:14;4.60;;;4.20;;
68050;SDS011;54839;51.364;7.246;2023-06-24T12:51:39;4.93;;;4.23;;
68050;SDS011;54839;51.364;7.246;2023-06-24T12:54:05;5.30;;;4.30;;
68050;SDS011;54839;51.364;7.246;2023-06-24T12:56:30;5.63;;;3.73;;
68050;SDS011;54839;51.364;7.246;2023-06-24T12:58:56;4.27;;;3.90;;
68050;SDS011;54839;51.364;7.246;2023-06-24T13:01:22;5.53;;;4.47;;
68050;SDS011;54839;51.364;7.246;2023-06-24T13:03:47;3.50;;;3.30;;
68050;SDS011;54839;51.364;7.246;2023-06-24T13:06:13;4.53;;;4.07;;
68050;SDS011;54839;51.364;7.246;2023-06-24T13:08:39;5.90;;;5.30;;
68050;SDS011;54839;51.364;7.246;2023-06-24T13:11:05;3.70;;;3.50;;
68050;SDS011;54839;51.364;7.246;2023-06-24T13:13:30;4.23;;;3.93;;
68050;SDS011;54839;51.364;7.246;2023-06-24T13:15:56;4.70;;;4.33;;
68050;SDS011;54839;51.364;7.246;2023-06-24T13:18:21;4.30;;;3.90;;
68050;SDS011;54839;51.364;7.246;2023-06-24T13:20:47;4.37;;;4.07;;
68050;SDS011;54839;51.364;7.246;2023-06-24T13:23:13;4.43;;;4.07;;
68050;SDS011;54839;51.364;7.246;2023-06-24T13:25:38;4.30;;;3.90;;
68050;SDS011;54839;51.364;7.246;2023-06-24T13:28:05;4.23;;;3.73;;
68050;SDS011;54839;51.364;7.246;2023-06-24T13:30:31;4.27;;;3.97;;
68050;SDS011;54839;51.364;7.246;2023-06-24T13:32:57;4.10;;;3.53;;
68050;SDS011;54839;51.364;7.246;2023-06-24T13:35:22;4.90;;;3.90;;
68050;SDS011;54839;51.364;7.246;2023-06-24T13:37:48;4.40;;;3.60;;
68050;SDS011;54839;51.364;7.246;2023-06-24T13:40:13;4.10;;;3.70;;
68050;SDS011;54839;51.364;7.246;2023-06-24T13:42:39;3.40;;;3.17;;
68050;SDS011;54839;51.364;7.246;2023-06-24T13:45:05;4.77;;;4.10;;
68050;SDS011;54839;51.364;7.246;2023-06-24T13:47:31;3.40;;;3.10;;
68050;SDS011;54839;51.364;7.246;2023-06-24T13:49:57;3.93;;;3.63;;
68050;SDS011;54839;51.364;7.246;2023-06-24T13:52:24;4.27;;;3.37;;
68050;SDS011;54839;51.364;7.246;2023-06-24T13:54:53;4.20;;;3.80;;
68050;SDS011;54839;51.364;7.246;2023-06-24T13:57:19;4.73;;;3.67;;
68050;SDS011;54839;51.364;7.246;2023-06-24T13:59:45;4.93;;;4.43;;
68050;SDS011;54839;51.364;7.246;2023-06-24T14:02:11;4.10;;;3.80;;
68050;SDS011;54839;51.364;7.246;2023-06-24T14:04:37;4.10;;;3.80;;
68050;SDS011;54839;51.364;7.246;2023-06-24T14:07:04;4.57;;;4.00;;
68050;SDS011;54839;51.364;7.246;2023-06-24T14:09:31;3.97;;;3.33;;
68050;SDS011;54839;51.364;7.246;2023-06-24T14:12:00;4.73;;;4.33;;
68050;SDS011;54839;51.364;7.246;2023-06-24T14:14:26;4.43;;;4.10;;
68050;SDS011;54839;51.364;7.246;2023-06-24T14:16:52;3.93;;;3.27;;
68050;SDS011;54839;51.364;7.246;2023-06-24T14:19:17;3.67;;;3.40;;
68050;SDS011;54839;51.364;7.246;2023-06-24T14:21:43;5.17;;;4.67;;
68050;SDS011;54839;51.364;7.246;2023-06-24T14:24:11;4.30;;;4.00;;
68050;SDS011;54839;51.364;7.246;2023-06-24T14:26:37;4.20;;;3.90;;
68050;SDS011;54839;51.364;7.246;2023-06-24T14:29:03;5.73;;;3.20;;
68050;SDS011;54839;51.364;7.246;2023-06-24T14:31:29;3.77;;;3.33;;
68050;SDS011;54839;51.364;7.246;2023-06-24T14:33:55;3.73;;;3.30;;
68050;SDS011;54839;51.364;7.246;2023-06-24T14:36:21;3.60;;;3.30;;
68050;SDS011;54839;51.364;7.246;2023-06-24T14:38:47;4.00;;;3.70;;
68050;SDS011;54839;51.364;7.246;2023-06-24T14:41:13;4.07;;;3.67;;
68050;SDS011;54839;51.364;7.246;2023-06-24T14:43:38;4.60;;;4.07;;
68050;SDS011;54839;51.364;7.246;2023-06-24T14:46:04;5.30;;;3.80;;
68050;SDS011;54839;51.364;7.246;2023-06-24T14:48:30;3.70;;;3.37;;
68050;SDS011;54839;51.364;7.246;2023-06-24T14:50:56;3.87;;;3.57;;
68050;SDS011;54839;51.364;7.246;2023-06-24T14:53:22;7.30;;;4.37;;
68050;SDS011;54839;51.364;7.246;2023-06-24T14:55:47;5.47;;;4.20;;
68050;SDS011;54839;51.364;7.246;2023-06-24T14:58:13;4.10;;;3.43;;
68050;SDS011;54839;51.364;7.246;2023-06-24T15:00:39;4.20;;;3.80;;
68050;SDS011;54839;51.364;7.246;2023-06-24T15:03:05;3.60;;;3.30;;
68050;SDS011;54839;51.364;7.246;2023-06-24T15:05:32;4.17;;;3.87;;
68050;SDS011;54839;51.364;7.246;2023-06-24T15:07:59;5.40;;;3.80;;
68050;SDS011;54839;51.364;7.246;2023-06-24T15:10:25;4.00;;;3.70;;
68050;SDS011;54839;51.364;7.246;2023-06-24T15:12:51;5.67;;;4.10;;
68050;SDS011;54839;51.364;7.246;2023-06-24T15:15:17;5.57;;;3.90;;
68050;SDS011;54839;51.364;7.246;2023-06-24T15:17:43;4.30;;;3.90;;
68050;SDS011;54839;51.364;7.246;2023-06-24T15:20:10;4.13;;;3.83;;
68050;SDS011;54839;51.364;7.246;2023-06-24T15:22:36;4.00;;;3.70;;